createdAt,value
2018-02-09T00:02:16.700Z,100.00
2018-02-09T00:04:44.160Z,100.00
2018-02-09T00:07:11.714Z,100.00
2018-02-09T00:09:39.442Z,100.00
2018-02-09T00:12:06.898Z,100.00
2018-02-09T00:14:34.357Z,100.00
2018-02-09T00:17:02.376Z,100.00
2018-02-09T00:19:29.832Z,100.00
2018-02-09T00:21:57.296Z,100.00
2018-02-09T00:24:25.064Z,100.00
2018-02-09T00:26:52.526Z,100.00
2018-02-09T00:29:19.984Z,100.00
2018-02-09T00:31:47.740Z,100.00
2018-02-09T00:34:15.204Z,100.00
2018-02-09T00:36:42.663Z,100.00
2018-02-09T00:39:10.749Z,100.00
2018-02-09T00:41:38.210Z,100.00
2018-02-09T00:44:05.689Z,100.00
2018-02-09T00:46:33.441Z,100.00
2018-02-09T00:49:00.904Z,100.00
2018-02-09T00:51:28.358Z,100.00
2018-02-09T00:53:56.121Z,100.00
2018-02-09T00:56:23.585Z,100.00
2018-02-09T00:58:51.053Z,100.00
2018-02-09T01:01:18.735Z,100.00
2018-02-09T01:03:46.201Z,100.00
2018-02-09T01:06:13.657Z,100.00
2018-02-09T01:08:41.498Z,100.00
2018-02-09T01:11:08.968Z,100.00
2018-02-09T01:13:36.431Z,100.00
2018-02-09T01:16:04.181Z,100.00
2018-02-09T01:18:31.961Z,100.00
2018-02-09T01:20:59.419Z,100.00
2018-02-09T01:23:27.173Z,100.00
2018-02-09T01:25:54.644Z,100.00
2018-02-09T01:28:22.097Z,100.00
2018-02-09T01:30:49.861Z,100.00
2018-02-09T01:33:17.324Z,100.00
2018-02-09T01:35:44.787Z,100.00
2018-02-09T01:38:12.550Z,100.00
2018-02-09T01:40:40.020Z,100.00
2018-02-09T01:43:07.477Z,100.00
2018-02-09T01:45:35.704Z,100.00
2018-02-09T01:48:03.173Z,100.00
2018-02-09T01:50:30.633Z,100.00
2018-02-09T01:52:58.532Z,100.00
2018-02-09T01:55:25.998Z,100.00
2018-02-09T01:57:53.463Z,100.00
2018-02-09T02:00:21.088Z,100.00
2018-02-09T02:02:48.558Z,100.00
2018-02-09T02:05:17.655Z,100.00
2018-02-09T02:07:45.592Z,100.00
2018-02-09T02:10:13.051Z,100.00
2018-02-09T02:12:40.541Z,100.00
2018-02-09T02:15:08.440Z,100.00
2018-02-09T02:17:35.905Z,100.00
2018-02-09T02:20:03.411Z,100.00
2018-02-09T02:22:31.446Z,100.00
2018-02-09T02:24:58.922Z,100.00
2018-02-09T02:27:26.377Z,100.00
2018-02-09T02:29:54.115Z,100.00
2018-02-09T02:32:21.577Z,100.00
2018-02-09T02:34:49.032Z,100.00
2018-02-09T02:37:16.809Z,100.00
2018-02-09T02:39:44.265Z,100.00
2018-02-09T02:42:11.730Z,100.00
2018-02-09T02:44:39.496Z,100.00
2018-02-09T02:47:07.644Z,100.00
2018-02-09T02:49:35.114Z,100.00
2018-02-09T02:52:03.093Z,100.00
2018-02-09T02:54:30.554Z,100.00
2018-02-09T02:56:58.381Z,100.00
2018-02-09T02:59:26.051Z,100.00
2018-02-09T03:01:53.644Z,100.00
2018-02-09T03:04:21.105Z,100.00
2018-02-09T03:06:48.969Z,100.00
2018-02-09T03:09:16.437Z,100.00
2018-02-09T03:11:43.898Z,100.00
2018-02-09T03:14:11.776Z,100.00
2018-02-09T03:16:39.261Z,100.00
2018-02-09T03:19:06.720Z,100.00
2018-02-09T03:21:34.474Z,100.00
2018-02-09T03:24:01.945Z,100.00
2018-02-09T03:26:29.413Z,100.00
2018-02-09T03:28:57.150Z,100.00
2018-02-09T03:31:24.614Z,100.00
2018-02-09T03:33:52.080Z,100.00
2018-02-09T03:36:20.139Z,100.00
2018-02-09T03:38:47.609Z,100.00
2018-02-09T03:41:15.069Z,100.00
2018-02-09T03:43:42.832Z,100.00
2018-02-09T03:46:10.302Z,100.00
2018-02-09T03:48:40.061Z,100.00
2018-02-09T03:51:07.666Z,100.00
2018-02-09T03:53:35.132Z,100.00
2018-02-09T03:56:02.596Z,100.00
2018-02-09T03:58:30.362Z,100.00
2018-02-09T04:00:57.827Z,100.00
2018-02-09T04:03:25.318Z,100.00
2018-02-09T04:05:53.360Z,100.00
2018-02-09T04:08:20.827Z,100.00
2018-02-09T04:10:48.287Z,100.00
2018-02-09T04:13:16.070Z,100.00
2018-02-09T04:15:43.541Z,100.00
2018-02-09T04:18:11.009Z,100.00
2018-02-09T04:20:38.641Z,100.00
2018-02-09T04:23:06.112Z,100.00
2018-02-09T04:25:33.574Z,100.00
2018-02-09T04:28:01.424Z,100.00
2018-02-09T04:30:28.881Z,100.00
2018-02-09T04:32:56.354Z,100.00
2018-02-09T04:35:24.107Z,100.00
2018-02-09T04:37:51.576Z,100.00
2018-02-09T04:40:19.030Z,100.00
2018-02-09T04:42:46.792Z,100.00
2018-02-09T04:45:14.272Z,100.00
2018-02-09T04:47:41.738Z,100.00
2018-02-09T04:50:10.576Z,100.00
2018-02-09T04:52:38.032Z,100.00
2018-02-09T04:55:05.500Z,100.00
2018-02-09T04:57:33.904Z,100.00
2018-02-09T05:00:01.382Z,100.00
2018-02-09T05:02:28.845Z,100.00
2018-02-09T05:04:56.697Z,100.00
2018-02-09T05:07:24.167Z,100.00
2018-02-09T05:09:51.625Z,100.00
2018-02-09T05:12:19.341Z,100.00
2018-02-09T05:14:46.802Z,100.00
2018-02-09T05:17:14.323Z,100.00
2018-02-09T05:19:42.091Z,100.00
2018-02-09T05:22:09.551Z,100.00
2018-02-09T05:24:37.013Z,100.00
2018-02-09T05:27:04.756Z,100.00
2018-02-09T05:29:32.281Z,100.00
2018-02-09T05:31:59.745Z,100.00
2018-02-09T05:34:27.726Z,100.00
2018-02-09T05:36:55.184Z,100.00
2018-02-09T05:39:22.647Z,100.00
2018-02-09T05:41:50.446Z,100.00
2018-02-09T05:44:17.913Z,100.00
2018-02-09T05:46:45.381Z,100.00
2018-02-09T05:49:13.103Z,100.00
2018-02-09T05:51:40.564Z,100.00
2018-02-09T05:54:08.087Z,100.00
2018-02-09T05:56:35.816Z,100.00
2018-02-09T05:59:03.288Z,100.00
2018-02-09T06:01:30.744Z,100.00
2018-02-09T06:03:58.487Z,100.00
2018-02-09T06:06:25.967Z,100.00
2018-02-09T06:08:53.430Z,100.00
2018-02-09T06:11:21.184Z,100.00
2018-02-09T06:13:48.644Z,100.00
2018-02-09T06:16:16.113Z,100.00
2018-02-09T06:18:44.176Z,100.00
2018-02-09T06:21:11.996Z,100.00
2018-02-09T06:23:39.460Z,100.00
2018-02-09T06:26:07.212Z,100.00
2018-02-09T06:28:34.681Z,100.00
2018-02-09T06:31:02.147Z,100.00
2018-02-09T06:33:30.211Z,100.00
2018-02-09T06:35:57.674Z,100.00
2018-02-09T06:38:25.139Z,100.00
2018-02-09T06:40:52.811Z,100.00
2018-02-09T06:43:20.270Z,100.00
2018-02-09T06:45:47.733Z,100.00
2018-02-09T06:48:15.541Z,100.00
2018-02-09T06:50:43.000Z,100.00
2018-02-09T06:53:11.144Z,100.00
2018-02-09T06:55:39.145Z,99.40
2018-02-09T06:58:06.596Z,99.72
2018-02-09T07:00:34.045Z,99.77
2018-02-09T07:03:02.142Z,97.84
2018-02-09T07:05:29.597Z,95.78
2018-02-09T07:07:57.052Z,95.89
2018-02-09T07:10:24.830Z,97.40
2018-02-09T07:12:52.280Z,97.17
2018-02-09T07:15:19.748Z,96.19
2018-02-09T07:17:47.514Z,97.45
2018-02-09T07:20:17.878Z,96.99
2018-02-09T07:22:45.351Z,97.05
2018-02-09T07:25:13.281Z,97.50
2018-02-09T07:27:40.790Z,96.47
2018-02-09T07:30:08.223Z,95.20
2018-02-09T07:32:35.963Z,95.24
2018-02-09T07:35:03.424Z,95.15
2018-02-09T07:37:30.886Z,96.35
2018-02-09T07:39:58.652Z,98.04
2018-02-09T07:42:26.101Z,98.88
2018-02-09T07:44:53.563Z,98.62
2018-02-09T07:47:21.334Z,96.04
2018-02-09T07:49:48.775Z,93.44
2018-02-09T07:52:16.243Z,93.21
2018-02-09T07:54:45.156Z,93.24
2018-02-09T07:57:12.621Z,93.77
2018-02-09T07:59:40.076Z,96.72
2018-02-09T08:02:07.924Z,95.33
2018-02-09T08:04:35.369Z,92.16
2018-02-09T08:07:02.818Z,91.58
2018-02-09T08:09:30.585Z,90.66
2018-02-09T08:11:58.085Z,90.06
2018-02-09T08:14:25.509Z,90.90
2018-02-09T08:16:53.315Z,91.67
2018-02-09T08:19:20.777Z,91.64
2018-02-09T08:21:48.225Z,90.34
2018-02-09T08:24:16.000Z,90.74
2018-02-09T08:26:43.456Z,90.17
2018-02-09T08:29:10.916Z,88.91
2018-02-09T08:31:38.693Z,89.18
2018-02-09T08:34:06.150Z,92.26
2018-02-09T08:36:33.607Z,90.10
2018-02-09T08:39:01.371Z,89.23
2018-02-09T08:41:28.815Z,87.35
2018-02-09T08:43:56.269Z,86.38
2018-02-09T08:46:24.048Z,87.40
2018-02-09T08:48:51.521Z,89.15
2018-02-09T08:51:18.974Z,88.15
2018-02-09T08:53:46.748Z,87.27
2018-02-09T08:56:14.269Z,87.45
2018-02-09T08:58:41.740Z,88.01
2018-02-09T09:01:09.313Z,88.30
2018-02-09T09:03:36.759Z,87.31
2018-02-09T09:06:04.208Z,87.35
2018-02-09T09:08:32.270Z,88.52
2018-02-09T09:10:59.723Z,86.39
2018-02-09T09:13:27.168Z,87.11
2018-02-09T09:15:55.123Z,86.77
2018-02-09T09:18:22.878Z,87.66
2018-02-09T09:20:50.337Z,84.92
2018-02-09T09:23:18.070Z,85.33
2018-02-09T09:25:45.517Z,85.02
2018-02-09T09:28:13.030Z,86.54
2018-02-09T09:30:40.800Z,86.82
2018-02-09T09:33:08.256Z,86.03
2018-02-09T09:35:35.708Z,85.26
2018-02-09T09:38:04.101Z,85.69
2018-02-09T09:40:31.569Z,86.30
2018-02-09T09:42:59.018Z,85.93
2018-02-09T09:45:26.784Z,84.97
2018-02-09T09:47:54.240Z,84.92
2018-02-09T09:50:21.698Z,86.81
2018-02-09T09:52:49.361Z,88.06
2018-02-09T09:55:16.816Z,87.15
2018-02-09T09:57:45.080Z,88.67
2018-02-09T10:00:12.768Z,88.33
2018-02-09T10:02:41.026Z,89.92
2018-02-09T10:05:08.482Z,87.75
2018-02-09T10:07:36.108Z,87.66
2018-02-09T10:10:03.578Z,87.39
2018-02-09T10:12:31.040Z,85.82
2018-02-09T10:14:59.072Z,86.18
2018-02-09T10:17:26.523Z,86.97
2018-02-09T10:19:53.974Z,84.55
2018-02-09T10:22:22.068Z,87.44
2018-02-09T10:24:49.529Z,89.81
2018-02-09T10:27:16.993Z,86.23
2018-02-09T10:29:44.743Z,86.17
2018-02-09T10:32:12.224Z,87.70
2018-02-09T10:34:39.686Z,85.35
2018-02-09T10:37:07.739Z,86.16
2018-02-09T10:39:35.205Z,88.76
2018-02-09T10:42:02.665Z,89.58
2018-02-09T10:44:30.433Z,91.45
2018-02-09T10:46:57.884Z,90.46
2018-02-09T10:49:25.353Z,88.40
2018-02-09T10:51:53.121Z,85.76
2018-02-09T10:54:20.608Z,86.58
2018-02-09T10:56:48.065Z,88.67
2018-02-09T10:59:17.030Z,86.41
2018-02-09T11:01:44.481Z,85.83
2018-02-09T11:04:11.959Z,86.59
2018-02-09T11:06:40.036Z,86.11
2018-02-09T11:09:07.500Z,84.97
2018-02-09T11:11:36.202Z,88.56
2018-02-09T11:14:04.875Z,86.44
2018-02-09T11:16:32.332Z,86.26
2018-02-09T11:18:59.792Z,87.48
2018-02-09T11:21:28.416Z,89.88
2018-02-09T11:23:56.934Z,88.59
2018-02-09T11:26:24.586Z,88.98
2018-02-09T11:28:52.920Z,89.34
2018-02-09T11:31:20.371Z,89.92
2018-02-09T11:33:48.552Z,89.43
2018-02-09T11:36:17.300Z,90.14
2018-02-09T11:38:44.869Z,90.04
2018-02-09T11:41:12.329Z,90.32
2018-02-09T11:43:40.099Z,90.60
2018-02-09T11:46:07.522Z,89.51
2018-02-09T11:48:34.982Z,90.42
2018-02-09T11:51:03.481Z,89.59
2018-02-09T11:53:30.964Z,86.49
2018-02-09T11:55:58.916Z,87.53
2018-02-09T11:58:26.678Z,88.63
2018-02-09T12:00:54.427Z,89.60
2018-02-09T12:03:21.929Z,88.30
2018-02-09T12:05:49.690Z,89.08
2018-02-09T12:08:17.140Z,89.85
2018-02-09T12:10:44.627Z,87.67
2018-02-09T12:13:12.504Z,90.39
2018-02-09T12:15:39.964Z,90.65
2018-02-09T12:18:07.429Z,90.68
2018-02-09T12:20:35.103Z,88.88
2018-02-09T12:23:02.561Z,90.58
2018-02-09T12:25:30.025Z,88.54
2018-02-09T12:27:57.896Z,88.48
2018-02-09T12:30:25.348Z,89.32
2018-02-09T12:32:52.815Z,89.73
2018-02-09T12:35:20.872Z,90.16
2018-02-09T12:37:48.336Z,90.47
2018-02-09T12:40:15.780Z,90.34
2018-02-09T12:42:43.556Z,89.38
2018-02-09T12:45:11.004Z,90.62
2018-02-09T12:47:38.461Z,90.22
2018-02-09T12:50:06.232Z,90.13
2018-02-09T12:52:33.682Z,91.17
2018-02-09T12:55:01.156Z,92.02
2018-02-09T12:57:29.244Z,93.37
2018-02-09T12:59:56.700Z,95.03
2018-02-09T13:02:24.905Z,92.05
2018-02-09T13:04:52.861Z,91.47
2018-02-09T13:07:20.310Z,91.87
2018-02-09T13:09:47.761Z,91.94
2018-02-09T13:12:27.205Z,93.23
2018-02-09T13:14:54.714Z,90.57
2018-02-09T13:17:23.628Z,90.15
2018-02-09T13:19:51.428Z,89.79
2018-02-09T13:25:24.149Z,89.42
2018-02-09T13:27:51.604Z,86.73
2018-02-09T13:30:19.067Z,88.48
2018-02-09T13:32:58.820Z,90.03
2018-02-09T13:35:26.269Z,88.40
2018-02-09T13:37:53.724Z,87.04
2018-02-09T13:40:21.499Z,86.54
2018-02-09T13:42:48.944Z,86.76
2018-02-09T13:45:16.414Z,87.43
2018-02-09T13:47:44.188Z,88.75
2018-02-09T13:50:11.645Z,87.63
2018-02-09T13:52:39.108Z,87.52
2018-02-09T13:55:06.896Z,87.70
2018-02-09T13:57:34.363Z,87.74
2018-02-09T14:00:01.819Z,86.91
2018-02-09T14:02:29.870Z,87.47
2018-02-09T14:04:57.334Z,85.47
2018-02-09T14:07:24.792Z,89.12
2018-02-09T14:09:52.544Z,84.18
2018-02-09T14:12:19.989Z,83.14
2018-02-09T14:14:47.448Z,83.98
2018-02-09T14:17:15.246Z,84.41
2018-02-09T14:19:43.368Z,85.35
2018-02-09T14:22:10.821Z,85.75
2018-02-09T14:24:38.545Z,85.26
2018-02-09T14:27:06.009Z,85.71
2018-02-09T14:29:33.467Z,86.14
2018-02-09T14:32:01.523Z,86.44
2018-02-09T14:34:28.964Z,86.41
2018-02-09T14:36:56.409Z,85.32
2018-02-09T14:39:24.217Z,86.42
2018-02-09T14:41:51.664Z,87.60
2018-02-09T14:44:20.608Z,84.75
2018-02-09T14:46:48.444Z,86.71
2018-02-09T14:49:15.903Z,86.04
2018-02-09T14:51:43.366Z,85.27
2018-02-09T14:54:11.120Z,85.78
2018-02-09T14:56:38.589Z,86.00
2018-02-09T14:59:06.074Z,86.31
2018-02-09T15:01:34.140Z,86.68
2018-02-09T15:04:02.010Z,86.11
2018-02-09T15:06:29.472Z,84.82
2018-02-09T15:08:57.454Z,85.82
2018-02-09T15:11:24.969Z,86.46
2018-02-09T15:13:52.432Z,85.91
2018-02-09T15:16:20.415Z,86.48
2018-02-09T15:18:47.870Z,85.64
2018-02-09T15:21:16.224Z,86.39
2018-02-09T15:23:43.972Z,86.07
2018-02-09T15:26:11.704Z,86.51
2018-02-09T15:28:39.188Z,86.88
2018-02-09T15:31:07.020Z,86.52
2018-02-09T15:33:34.460Z,86.77
2018-02-09T15:36:01.924Z,86.03
2018-02-09T15:38:29.706Z,86.06
2018-02-09T15:40:57.498Z,87.00
2018-02-09T15:43:24.947Z,88.96
2018-02-09T15:45:52.694Z,88.01
2018-02-09T15:48:20.143Z,87.67
2018-02-09T15:50:47.610Z,88.19
2018-02-09T15:53:15.389Z,86.79
2018-02-09T15:55:42.840Z,87.16
2018-02-09T15:58:10.288Z,87.27
2018-02-09T16:00:38.011Z,85.66
2018-02-09T16:03:05.500Z,86.54
2018-02-09T16:05:34.808Z,85.92
2018-02-09T16:08:02.618Z,88.21
2018-02-09T16:10:30.081Z,86.61
2018-02-09T16:12:57.532Z,86.96
2018-02-09T16:15:25.293Z,87.07
2018-02-09T16:17:52.764Z,87.89
2018-02-09T16:20:20.690Z,87.25
2018-02-09T16:22:49.235Z,87.03
2018-02-09T16:25:16.688Z,87.63
2018-02-09T16:27:44.137Z,88.95
2018-02-09T16:30:11.900Z,89.37
2018-02-09T16:32:39.345Z,89.44
2018-02-09T16:35:06.797Z,90.14
2018-02-09T16:37:34.592Z,88.88
2018-02-09T16:40:02.045Z,88.44
2018-02-09T16:42:29.551Z,91.24
2018-02-09T16:44:57.986Z,89.35
2018-02-09T16:47:25.458Z,86.83
2018-02-09T16:49:52.918Z,87.42
2018-02-09T16:52:21.167Z,89.36
2018-02-09T16:54:48.613Z,89.96
2018-02-09T16:57:16.710Z,87.20
2018-02-09T16:59:44.490Z,88.83
2018-02-09T17:02:11.937Z,88.79
2018-02-09T17:04:39.765Z,88.23
2018-02-09T17:07:07.977Z,87.65
2018-02-09T17:09:35.634Z,85.69
2018-02-09T17:12:03.149Z,85.92
2018-02-09T17:14:31.424Z,85.57
2018-02-09T17:16:58.874Z,86.68
2018-02-09T17:19:26.325Z,86.67
2018-02-09T17:21:54.395Z,88.10
2018-02-09T17:24:21.840Z,87.35
2018-02-09T17:26:49.288Z,87.94
2018-02-09T17:29:17.088Z,87.81
2018-02-09T17:31:44.536Z,86.91
2018-02-09T17:34:11.977Z,88.55
2018-02-09T17:36:39.773Z,88.72
2018-02-09T17:39:07.220Z,89.20
2018-02-09T17:41:34.666Z,87.64
2018-02-09T17:44:02.461Z,88.20
2018-02-09T17:46:29.914Z,86.73
2018-02-09T17:48:57.381Z,88.48
2018-02-09T17:51:25.164Z,88.97
2018-02-09T17:53:52.609Z,87.36
2018-02-09T17:56:20.075Z,88.16
2018-02-09T17:58:48.474Z,90.09
2018-02-09T18:01:15.939Z,87.87
2018-02-09T18:03:43.390Z,87.07
2018-02-09T18:06:11.136Z,87.12
2018-02-09T18:08:38.933Z,87.23
2018-02-09T18:11:07.048Z,88.01
2018-02-09T18:13:34.738Z,88.70
2018-02-09T18:16:02.181Z,89.21
2018-02-09T18:18:29.785Z,88.17
2018-02-09T18:20:57.732Z,89.49
2018-02-09T18:23:25.231Z,88.09
2018-02-09T18:25:52.688Z,88.27
2018-02-09T18:28:20.424Z,87.92
2018-02-09T18:30:47.877Z,88.48
2018-02-09T18:33:15.330Z,88.82
2018-02-09T18:35:43.114Z,89.49
2018-02-09T18:38:10.560Z,89.46
2018-02-09T18:40:38.017Z,90.24
2018-02-09T18:43:05.644Z,90.15
2018-02-09T18:45:33.098Z,90.14
2018-02-09T18:48:00.558Z,90.38
2018-02-09T18:50:28.509Z,90.54
2018-02-09T18:52:55.973Z,90.36
2018-02-09T18:55:23.465Z,90.19
2018-02-09T18:57:51.160Z,90.49
2018-02-09T19:00:18.609Z,89.45
2018-02-09T19:02:46.085Z,90.24
2018-02-09T19:05:13.852Z,90.84
2018-02-09T19:07:41.310Z,90.39
2018-02-09T19:10:09.925Z,91.10
2018-02-09T19:12:37.664Z,90.83
2018-02-09T19:15:05.123Z,90.34
2018-02-09T19:17:32.571Z,89.59
2018-02-09T19:20:00.463Z,90.30
2018-02-09T19:22:27.957Z,89.12
2018-02-09T19:24:55.407Z,90.08
2018-02-09T19:27:23.157Z,89.83
2018-02-09T19:29:50.625Z,89.74
2018-02-09T19:32:18.886Z,91.84
2018-02-09T19:34:46.805Z,90.05
2018-02-09T19:37:14.260Z,91.22
2018-02-09T19:39:42.584Z,90.18
2018-02-09T19:42:10.415Z,90.40
2018-02-09T19:44:37.908Z,90.12
2018-02-09T19:47:05.364Z,89.89
2018-02-09T19:49:33.062Z,90.71
2018-02-09T19:52:01.128Z,90.56
2018-02-09T19:54:28.881Z,91.03
2018-02-09T19:56:56.961Z,91.50
2018-02-09T19:59:24.735Z,91.32
2018-02-09T20:01:52.238Z,89.94
2018-02-09T20:04:21.033Z,91.13
2018-02-09T20:06:50.838Z,91.06
2018-02-09T20:09:18.662Z,91.69
2018-02-09T20:11:46.167Z,91.25
2018-02-09T20:14:14.409Z,90.64
2018-02-09T20:16:42.876Z,90.60
2018-02-09T20:19:10.415Z,91.67
2018-02-09T20:21:38.337Z,92.12
2018-02-09T20:24:05.801Z,93.17
2018-02-09T20:26:33.750Z,93.22
2018-02-09T20:29:01.836Z,90.95
2018-02-09T20:31:29.298Z,91.18
2018-02-09T20:33:56.765Z,90.74
2018-02-09T20:36:25.165Z,91.04
2018-02-09T20:38:52.747Z,92.19
2018-02-09T20:41:20.242Z,93.31
2018-02-09T20:43:48.237Z,92.08
2018-02-09T20:46:15.701Z,92.98
2018-02-09T20:48:43.166Z,92.50
2018-02-09T20:51:10.922Z,92.55
2018-02-09T20:53:38.381Z,92.62
2018-02-09T20:56:06.365Z,91.64
2018-02-09T20:58:34.824Z,90.72
2018-02-09T21:01:03.141Z,91.51
2018-02-09T21:03:30.617Z,96.12
2018-02-09T21:05:58.440Z,91.02
2018-02-09T21:08:26.276Z,91.45
2018-02-09T21:10:54.449Z,90.88
2018-02-09T21:13:23.541Z,90.73
2018-02-09T21:15:51.003Z,91.24
2018-02-09T21:18:18.459Z,91.85
2018-02-09T21:20:46.285Z,91.80
2018-02-09T21:23:14.436Z,91.73
2018-02-09T21:25:41.888Z,91.05
2018-02-09T21:28:09.972Z,91.45
2018-02-09T21:30:37.432Z,92.56
2018-02-09T21:33:04.883Z,91.10
2018-02-09T21:35:32.974Z,92.80
2018-02-09T21:38:00.529Z,92.45
2018-02-09T21:40:27.976Z,92.53
2018-02-09T21:42:55.868Z,92.02
2018-02-09T21:45:23.443Z,91.36
2018-02-09T21:47:50.948Z,92.04
2018-02-09T21:50:18.860Z,92.23
2018-02-09T21:52:46.327Z,91.89
2018-02-09T21:55:14.124Z,91.55
2018-02-09T21:57:42.828Z,93.05
2018-02-09T22:00:10.283Z,92.29
2018-02-09T22:02:37.740Z,93.14
2018-02-09T22:05:05.795Z,93.19
2018-02-09T22:07:33.245Z,93.31
2018-02-09T22:10:02.806Z,92.36
2018-02-09T22:12:30.743Z,97.06
2018-02-09T22:14:58.395Z,91.18
2018-02-09T22:17:25.873Z,92.53
2018-02-09T22:19:54.217Z,93.01
2018-02-09T22:22:21.678Z,93.24
2018-02-09T22:24:49.128Z,93.84
2018-02-09T22:27:16.910Z,93.34
2018-02-09T22:29:45.068Z,93.38
2018-02-09T22:32:12.808Z,92.71
2018-02-09T22:34:40.539Z,93.49
2018-02-09T22:37:07.996Z,93.77
2018-02-09T22:39:35.443Z,92.90
2018-02-09T22:42:03.510Z,93.94
2018-02-09T22:44:30.961Z,93.28
2018-02-09T22:46:58.440Z,93.84
2018-02-09T22:49:26.206Z,92.81
2018-02-09T22:51:53.666Z,98.56
2018-02-09T22:54:21.121Z,92.03
2018-02-09T22:56:48.889Z,92.51
2018-02-09T22:59:16.356Z,95.16
2018-02-09T23:01:43.809Z,95.07
2018-02-09T23:04:11.571Z,93.45
2018-02-09T23:06:39.021Z,93.96
2018-02-09T23:09:06.480Z,92.87
2018-02-09T23:11:34.871Z,95.51
2018-02-09T23:14:02.320Z,94.72
2018-02-09T23:16:29.772Z,97.07
2018-02-09T23:18:57.698Z,97.11
2018-02-09T23:21:25.184Z,97.72
2018-02-09T23:23:52.661Z,97.50
2018-02-09T23:26:20.549Z,98.23
2018-02-09T23:28:48.000Z,97.95
2018-02-09T23:31:15.459Z,96.86
2018-02-09T23:33:43.284Z,95.33
2018-02-09T23:36:10.749Z,95.14
2018-02-09T23:38:38.209Z,94.93
2018-02-09T23:41:06.250Z,96.33
2018-02-09T23:43:33.701Z,95.10
2018-02-09T23:46:01.168Z,94.95
2018-02-09T23:48:29.243Z,95.26
2018-02-09T23:50:56.709Z,95.20
2018-02-09T23:53:24.170Z,95.15
2018-02-09T23:55:51.928Z,95.97
2018-02-09T23:58:19.386Z,95.68
